sensor_id;sensor_type;location;lat;lon;timestamp;temperature;humidity
19180;DHT22;9722;48.754;8.868;2023-07-08T00:02:41;17.40;65.20
19180;DHT22;9722;48.754;8.868;2023-07-08T00:06:02;17.40;65.70
19180;DHT22;9722;48.754;8.868;2023-07-08T00:09:22;17.30;65.70
19180;DHT22;9722;48.754;8.868;2023-07-08T00:12:45;17.30;65.90
19180;DHT22;9722;48.754;8.868;2023-07-08T00:16:14;17.30;66.80
19180;DHT22;9722;48.754;8.868;2023-07-08T00:19:35;17.20;66.20
19180;DHT22;9722;48.754;8.868;2023-07-08T00:22:55;17.20;66.60
19180;DHT22;9722;48.754;8.868;2023-07-08T00:26:25;17.10;66.90
19180;DHT22;9722;48.754;8.868;2023-07-08T00:29:46;17.10;67.40
19180;DHT22;9722;48.754;8.868;2023-07-08T00:33:07;17.00;67.50
19180;DHT22;9722;48.754;8.868;2023-07-08T00:36:27;16.90;67.70
19180;DHT22;9722;48.754;8.868;2023-07-08T00:39:48;16.90;67.90
19180;DHT22;9722;48.754;8.868;2023-07-08T00:43:09;16.90;68.30
19180;DHT22;9722;48.754;8.868;2023-07-08T00:49:55;16.90;68.60
19180;DHT22;9722;48.754;8.868;2023-07-08T00:53:31;16.90;68.80
19180;DHT22;9722;48.754;8.868;2023-07-08T00:56:57;17.00;69.10
19180;DHT22;9722;48.754;8.868;2023-07-08T01:00:18;16.90;69.20
19180;DHT22;9722;48.754;8.868;2023-07-08T01:03:50;16.90;69.60
19180;DHT22;9722;48.754;8.868;2023-07-08T01:07:13;16.90;69.80
19180;DHT22;9722;48.754;8.868;2023-07-08T01:10:52;16.90;70.00
19180;DHT22;9722;48.754;8.868;2023-07-08T01:14:16;16.90;70.50
19180;DHT22;9722;48.754;8.868;2023-07-08T01:17:40;16.80;70.60
19180;DHT22;9722;48.754;8.868;2023-07-08T01:21:04;16.70;71.10
19180;DHT22;9722;48.754;8.868;2023-07-08T01:24:27;16.70;71.60
19180;DHT22;9722;48.754;8.868;2023-07-08T01:27:53;16.60;71.80
19180;DHT22;9722;48.754;8.868;2023-07-08T01:31:14;16.50;71.90
19180;DHT22;9722;48.754;8.868;2023-07-08T01:34:36;16.50;72.20
19180;DHT22;9722;48.754;8.868;2023-07-08T01:38:00;16.40;72.30
19180;DHT22;9722;48.754;8.868;2023-07-08T01:41:22;16.50;72.50
19180;DHT22;9722;48.754;8.868;2023-07-08T01:44:42;16.40;72.60
19180;DHT22;9722;48.754;8.868;2023-07-08T01:48:11;16.40;72.70
19180;DHT22;9722;48.754;8.868;2023-07-08T01:51:32;16.40;73.00
19180;DHT22;9722;48.754;8.868;2023-07-08T01:54:56;16.40;73.20
19180;DHT22;9722;48.754;8.868;2023-07-08T01:58:17;16.40;73.40
19180;DHT22;9722;48.754;8.868;2023-07-08T02:01:37;16.30;73.60
19180;DHT22;9722;48.754;8.868;2023-07-08T02:04:58;16.30;73.80
19180;DHT22;9722;48.754;8.868;2023-07-08T02:08:19;16.30;74.10
19180;DHT22;9722;48.754;8.868;2023-07-08T02:11:39;16.30;74.40
19180;DHT22;9722;48.754;8.868;2023-07-08T02:15:01;16.30;74.70
19180;DHT22;9722;48.754;8.868;2023-07-08T02:18:21;16.30;74.80
19180;DHT22;9722;48.754;8.868;2023-07-08T02:21:45;16.30;74.80
19180;DHT22;9722;48.754;8.868;2023-07-08T02:25:05;16.30;74.70
19180;DHT22;9722;48.754;8.868;2023-07-08T02:28:26;16.40;74.60
19180;DHT22;9722;48.754;8.868;2023-07-08T02:31:46;16.40;74.20
19180;DHT22;9722;48.754;8.868;2023-07-08T02:35:08;16.40;74.10
19180;DHT22;9722;48.754;8.868;2023-07-08T02:38:29;16.50;74.10
19180;DHT22;9722;48.754;8.868;2023-07-08T02:41:49;16.50;74.10
19180;DHT22;9722;48.754;8.868;2023-07-08T02:45:11;16.50;74.10
19180;DHT22;9722;48.754;8.868;2023-07-08T02:48:32;16.50;74.10
19180;DHT22;9722;48.754;8.868;2023-07-08T02:51:52;16.50;74.10
19180;DHT22;9722;48.754;8.868;2023-07-08T02:55:13;16.40;74.40
19180;DHT22;9722;48.754;8.868;2023-07-08T02:58:33;16.40;74.80
19180;DHT22;9722;48.754;8.868;2023-07-08T03:01:54;16.30;74.90
19180;DHT22;9722;48.754;8.868;2023-07-08T03:05:15;16.30;75.10
19180;DHT22;9722;48.754;8.868;2023-07-08T03:08:36;16.30;75.10
19180;DHT22;9722;48.754;8.868;2023-07-08T03:11:56;16.30;75.50
19180;DHT22;9722;48.754;8.868;2023-07-08T03:15:17;16.30;74.50
19180;DHT22;9722;48.754;8.868;2023-07-08T03:18:38;16.30;74.30
19180;DHT22;9722;48.754;8.868;2023-07-08T03:22:06;16.30;74.00
19180;DHT22;9722;48.754;8.868;2023-07-08T03:25:28;16.40;74.00
19180;DHT22;9722;48.754;8.868;2023-07-08T03:28:49;16.40;73.80
19180;DHT22;9722;48.754;8.868;2023-07-08T03:32:11;16.40;73.90
19180;DHT22;9722;48.754;8.868;2023-07-08T03:35:32;16.40;74.00
19180;DHT22;9722;48.754;8.868;2023-07-08T03:38:54;16.40;74.20
19180;DHT22;9722;48.754;8.868;2023-07-08T03:42:15;16.40;74.30
19180;DHT22;9722;48.754;8.868;2023-07-08T03:45:36;16.30;74.50
19180;DHT22;9722;48.754;8.868;2023-07-08T03:48:56;16.30;75.20
19180;DHT22;9722;48.754;8.868;2023-07-08T03:52:17;16.30;75.30
19180;DHT22;9722;48.754;8.868;2023-07-08T03:55:37;16.20;75.90
19180;DHT22;9722;48.754;8.868;2023-07-08T03:58:58;16.20;76.50
19180;DHT22;9722;48.754;8.868;2023-07-08T04:02:19;16.20;76.60
19180;DHT22;9722;48.754;8.868;2023-07-08T04:05:39;16.10;76.70
19180;DHT22;9722;48.754;8.868;2023-07-08T04:09:00;16.20;77.00
19180;DHT22;9722;48.754;8.868;2023-07-08T04:12:20;16.30;77.80
19180;DHT22;9722;48.754;8.868;2023-07-08T04:15:41;16.30;76.80
19180;DHT22;9722;48.754;8.868;2023-07-08T04:19:01;16.40;76.80
19180;DHT22;9722;48.754;8.868;2023-07-08T04:22:22;16.50;76.70
19180;DHT22;9722;48.754;8.868;2023-07-08T04:25:44;16.60;76.50
19180;DHT22;9722;48.754;8.868;2023-07-08T04:29:12;16.70;76.10
19180;DHT22;9722;48.754;8.868;2023-07-08T04:32:33;16.80;75.80
19180;DHT22;9722;48.754;8.868;2023-07-08T04:35:53;16.90;75.70
19180;DHT22;9722;48.754;8.868;2023-07-08T04:39:14;17.00;75.30
19180;DHT22;9722;48.754;8.868;2023-07-08T04:42:35;17.10;74.90
19180;DHT22;9722;48.754;8.868;2023-07-08T04:45:56;17.20;74.60
19180;DHT22;9722;48.754;8.868;2023-07-08T04:49:17;17.20;74.30
19180;DHT22;9722;48.754;8.868;2023-07-08T04:52:37;17.30;74.10
19180;DHT22;9722;48.754;8.868;2023-07-08T04:55:58;17.30;73.90
19180;DHT22;9722;48.754;8.868;2023-07-08T04:59:22;17.40;73.90
19180;DHT22;9722;48.754;8.868;2023-07-08T05:02:43;17.50;75.00
19180;DHT22;9722;48.754;8.868;2023-07-08T05:06:03;17.60;74.90
19180;DHT22;9722;48.754;8.868;2023-07-08T05:09:24;17.70;74.40
19180;DHT22;9722;48.754;8.868;2023-07-08T05:12:46;17.90;73.80
19180;DHT22;9722;48.754;8.868;2023-07-08T05:16:07;18.10;73.10
19180;DHT22;9722;48.754;8.868;2023-07-08T05:19:27;18.40;72.60
19180;DHT22;9722;48.754;8.868;2023-07-08T05:22:48;18.60;71.60
19180;DHT22;9722;48.754;8.868;2023-07-08T05:26:08;18.80;71.00
19180;DHT22;9722;48.754;8.868;2023-07-08T05:29:29;19.10;70.20
19180;DHT22;9722;48.754;8.868;2023-07-08T05:32:50;19.40;69.40
19180;DHT22;9722;48.754;8.868;2023-07-08T05:36:10;19.80;68.40
19180;DHT22;9722;48.754;8.868;2023-07-08T05:39:31;20.10;67.30
19180;DHT22;9722;48.754;8.868;2023-07-08T05:42:52;20.40;66.30
19180;DHT22;9722;48.754;8.868;2023-07-08T05:46:12;20.80;64.80
19180;DHT22;9722;48.754;8.868;2023-07-08T05:49:33;21.10;63.60
19180;DHT22;9722;48.754;8.868;2023-07-08T05:52:53;21.40;62.70
19180;DHT22;9722;48.754;8.868;2023-07-08T05:56:14;21.60;61.90
19180;DHT22;9722;48.754;8.868;2023-07-08T05:59:36;21.80;61.30
19180;DHT22;9722;48.754;8.868;2023-07-08T06:02:56;22.10;60.70
19180;DHT22;9722;48.754;8.868;2023-07-08T06:06:17;22.40;60.00
19180;DHT22;9722;48.754;8.868;2023-07-08T06:09:37;22.90;59.80
19180;DHT22;9722;48.754;8.868;2023-07-08T06:12:58;23.70;58.80
19180;DHT22;9722;48.754;8.868;2023-07-08T06:16:18;24.50;57.30
19180;DHT22;9722;48.754;8.868;2023-07-08T06:19:39;25.40;55.80
19180;DHT22;9722;48.754;8.868;2023-07-08T06:22:59;26.20;54.20
19180;DHT22;9722;48.754;8.868;2023-07-08T06:26:20;26.90;52.30
19180;DHT22;9722;48.754;8.868;2023-07-08T06:29:41;27.40;51.00
19180;DHT22;9722;48.754;8.868;2023-07-08T06:33:01;28.00;49.90
19180;DHT22;9722;48.754;8.868;2023-07-08T06:36:22;28.60;48.40
19180;DHT22;9722;48.754;8.868;2023-07-08T06:39:43;29.20;47.70
19180;DHT22;9722;48.754;8.868;2023-07-08T06:43:03;29.50;46.70
19180;DHT22;9722;48.754;8.868;2023-07-08T06:46:24;29.40;45.80
19180;DHT22;9722;48.754;8.868;2023-07-08T06:49:44;29.10;46.00
19180;DHT22;9722;48.754;8.868;2023-07-08T06:53:05;28.70;46.40
19180;DHT22;9722;48.754;8.868;2023-07-08T06:56:28;28.30;46.80
19180;DHT22;9722;48.754;8.868;2023-07-08T06:59:48;28.00;47.30
19180;DHT22;9722;48.754;8.868;2023-07-08T07:03:09;27.70;47.90
19180;DHT22;9722;48.754;8.868;2023-07-08T07:06:30;27.50;48.30
19180;DHT22;9722;48.754;8.868;2023-07-08T07:09:50;27.30;48.40
19180;DHT22;9722;48.754;8.868;2023-07-08T07:13:11;27.10;48.80
19180;DHT22;9722;48.754;8.868;2023-07-08T07:16:32;27.00;49.10
19180;DHT22;9722;48.754;8.868;2023-07-08T07:19:53;27.00;49.30
19180;DHT22;9722;48.754;8.868;2023-07-08T07:23:14;27.10;49.40
19180;DHT22;9722;48.754;8.868;2023-07-08T07:26:34;27.10;49.10
19180;DHT22;9722;48.754;8.868;2023-07-08T07:29:56;27.10;49.30
19180;DHT22;9722;48.754;8.868;2023-07-08T07:33:19;27.10;49.20
19180;DHT22;9722;48.754;8.868;2023-07-08T07:36:40;27.50;48.70
19180;DHT22;9722;48.754;8.868;2023-07-08T07:40:00;28.50;47.50
19180;DHT22;9722;48.754;8.868;2023-07-08T07:43:21;29.40;46.30
19180;DHT22;9722;48.754;8.868;2023-07-08T07:46:42;30.10;45.40
19180;DHT22;9722;48.754;8.868;2023-07-08T07:50:07;31.10;44.50
19180;DHT22;9722;48.754;8.868;2023-07-08T07:53:28;32.20;42.80
19180;DHT22;9722;48.754;8.868;2023-07-08T07:56:48;32.50;42.00
19180;DHT22;9722;48.754;8.868;2023-07-08T08:00:09;32.20;41.90
19180;DHT22;9722;48.754;8.868;2023-07-08T08:03:30;32.10;42.00
19180;DHT22;9722;48.754;8.868;2023-07-08T08:06:50;32.60;40.80
19180;DHT22;9722;48.754;8.868;2023-07-08T08:10:11;33.30;40.10
19180;DHT22;9722;48.754;8.868;2023-07-08T08:13:31;34.00;39.20
19180;DHT22;9722;48.754;8.868;2023-07-08T08:16:52;34.00;38.00
19180;DHT22;9722;48.754;8.868;2023-07-08T08:20:13;33.50;38.00
19180;DHT22;9722;48.754;8.868;2023-07-08T08:23:33;32.90;38.60
19180;DHT22;9722;48.754;8.868;2023-07-08T08:26:54;33.10;38.30
19180;DHT22;9722;48.754;8.868;2023-07-08T08:30:15;33.00;38.20
19180;DHT22;9722;48.754;8.868;2023-07-08T08:33:35;33.50;37.80
19180;DHT22;9722;48.754;8.868;2023-07-08T08:36:56;33.90;37.30
19180;DHT22;9722;48.754;8.868;2023-07-08T08:40:17;34.00;36.90
19180;DHT22;9722;48.754;8.868;2023-07-08T08:43:39;34.10;36.40
19180;DHT22;9722;48.754;8.868;2023-07-08T08:47:25;34.60;35.70
19180;DHT22;9722;48.754;8.868;2023-07-08T08:50:58;35.20;35.50
19180;DHT22;9722;48.754;8.868;2023-07-08T08:54:21;36.20;35.00
19180;DHT22;9722;48.754;8.868;2023-07-08T08:57:59;37.50;33.50
19180;DHT22;9722;48.754;8.868;2023-07-08T09:01:23;37.70;33.20
19180;DHT22;9722;48.754;8.868;2023-07-08T09:04:43;37.40;32.80
19180;DHT22;9722;48.754;8.868;2023-07-08T09:08:25;36.70;33.00
19180;DHT22;9722;48.754;8.868;2023-07-08T09:11:52;36.40;33.20
19180;DHT22;9722;48.754;8.868;2023-07-08T09:15:15;36.60;33.00
19180;DHT22;9722;48.754;8.868;2023-07-08T09:18:43;37.00;31.80
19180;DHT22;9722;48.754;8.868;2023-07-08T09:25:59;37.00;31.50
19180;DHT22;9722;48.754;8.868;2023-07-08T09:29:22;36.90;31.20
19180;DHT22;9722;48.754;8.868;2023-07-08T09:32:43;37.20;31.50
19180;DHT22;9722;48.754;8.868;2023-07-08T09:36:17;37.00;30.10
19180;DHT22;9722;48.754;8.868;2023-07-08T09:39:38;36.90;30.60
19180;DHT22;9722;48.754;8.868;2023-07-08T09:43:02;37.60;30.30
19180;DHT22;9722;48.754;8.868;2023-07-08T09:46:23;38.50;29.60
19180;DHT22;9722;48.754;8.868;2023-07-08T09:49:44;39.30;29.30
19180;DHT22;9722;48.754;8.868;2023-07-08T09:53:05;39.80;28.70
19180;DHT22;9722;48.754;8.868;2023-07-08T09:56:27;40.10;28.40
19180;DHT22;9722;48.754;8.868;2023-07-08T10:00:02;40.20;28.20
19180;DHT22;9722;48.754;8.868;2023-07-08T10:03:33;40.50;27.90
19180;DHT22;9722;48.754;8.868;2023-07-08T10:06:54;40.90;27.90
19180;DHT22;9722;48.754;8.868;2023-07-08T10:10:19;41.30;27.40
19180;DHT22;9722;48.754;8.868;2023-07-08T10:13:44;41.80;27.10
19180;DHT22;9722;48.754;8.868;2023-07-08T10:17:05;42.20;26.80
19180;DHT22;9722;48.754;8.868;2023-07-08T10:20:35;42.50;26.50
19180;DHT22;9722;48.754;8.868;2023-07-08T10:24:17;42.40;26.30
19180;DHT22;9722;48.754;8.868;2023-07-08T10:27:47;42.30;26.10
19180;DHT22;9722;48.754;8.868;2023-07-08T10:31:48;42.60;26.80
19180;DHT22;9722;48.754;8.868;2023-07-08T10:35:33;42.90;26.50
19180;DHT22;9722;48.754;8.868;2023-07-08T10:43:00;42.60;26.60
19180;DHT22;9722;48.754;8.868;2023-07-08T10:46:24;42.60;26.30
19180;DHT22;9722;48.754;8.868;2023-07-08T11:05:05;45.20;24.50
19180;DHT22;9722;48.754;8.868;2023-07-08T11:08:53;45.60;23.90
19180;DHT22;9722;48.754;8.868;2023-07-08T11:12:32;45.70;23.60
19180;DHT22;9722;48.754;8.868;2023-07-08T11:15:58;46.00;23.90
19180;DHT22;9722;48.754;8.868;2023-07-08T11:19:26;46.60;23.70
19180;DHT22;9722;48.754;8.868;2023-07-08T11:22:57;47.40;23.10
19180;DHT22;9722;48.754;8.868;2023-07-08T11:26:34;47.60;22.60
19180;DHT22;9722;48.754;8.868;2023-07-08T11:30:14;47.60;22.40
19180;DHT22;9722;48.754;8.868;2023-07-08T11:33:36;47.30;22.50
19180;DHT22;9722;48.754;8.868;2023-07-08T11:36:58;46.50;22.70
19180;DHT22;9722;48.754;8.868;2023-07-08T11:40:22;45.20;23.80
19180;DHT22;9722;48.754;8.868;2023-07-08T11:43:48;44.80;23.90
19180;DHT22;9722;48.754;8.868;2023-07-08T11:47:21;43.50;24.50
19180;DHT22;9722;48.754;8.868;2023-07-08T11:50:46;41.90;25.30
19180;DHT22;9722;48.754;8.868;2023-07-08T11:54:33;40.50;26.60
19180;DHT22;9722;48.754;8.868;2023-07-08T11:57:54;39.90;27.90
19180;DHT22;9722;48.754;8.868;2023-07-08T12:05:13;42.30;27.30
19180;DHT22;9722;48.754;8.868;2023-07-08T12:08:36;42.00;27.30
19180;DHT22;9722;48.754;8.868;2023-07-08T12:12:01;42.40;27.10
19180;DHT22;9722;48.754;8.868;2023-07-08T12:15:27;43.40;26.60
19180;DHT22;9722;48.754;8.868;2023-07-08T12:18:49;44.60;26.00
19180;DHT22;9722;48.754;8.868;2023-07-08T12:22:10;46.00;25.60
19180;DHT22;9722;48.754;8.868;2023-07-08T12:25:33;47.30;24.50
19180;DHT22;9722;48.754;8.868;2023-07-08T12:28:56;48.20;23.80
19180;DHT22;9722;48.754;8.868;2023-07-08T12:32:17;48.70;23.50
19180;DHT22;9722;48.754;8.868;2023-07-08T12:35:40;49.00;23.20
19180;DHT22;9722;48.754;8.868;2023-07-08T12:39:01;47.70;23.50
19180;DHT22;9722;48.754;8.868;2023-07-08T12:42:22;45.70;24.40
19180;DHT22;9722;48.754;8.868;2023-07-08T12:45:43;44.30;25.40
19180;DHT22;9722;48.754;8.868;2023-07-08T12:49:03;43.40;25.80
19180;DHT22;9722;48.754;8.868;2023-07-08T12:52:24;42.80;26.30
19180;DHT22;9722;48.754;8.868;2023-07-08T12:55:45;43.30;26.30
19180;DHT22;9722;48.754;8.868;2023-07-08T12:59:06;44.30;25.80
19180;DHT22;9722;48.754;8.868;2023-07-08T13:02:28;45.40;25.30
19180;DHT22;9722;48.754;8.868;2023-07-08T13:05:52;46.60;24.80
19180;DHT22;9722;48.754;8.868;2023-07-08T13:13:03;47.80;23.80
19180;DHT22;9722;48.754;8.868;2023-07-08T13:16:29;48.00;23.10
19180;DHT22;9722;48.754;8.868;2023-07-08T13:19:51;48.50;23.10
19180;DHT22;9722;48.754;8.868;2023-07-08T13:23:12;48.80;22.60
19180;DHT22;9722;48.754;8.868;2023-07-08T13:26:33;48.60;22.60
19180;DHT22;9722;48.754;8.868;2023-07-08T13:33:33;47.90;22.70
19180;DHT22;9722;48.754;8.868;2023-07-08T13:36:54;46.90;23.10
19180;DHT22;9722;48.754;8.868;2023-07-08T13:40:14;45.30;23.60
19180;DHT22;9722;48.754;8.868;2023-07-08T13:43:37;43.20;24.20
19180;DHT22;9722;48.754;8.868;2023-07-08T13:46:59;41.60;25.70
19180;DHT22;9722;48.754;8.868;2023-07-08T13:50:26;40.30;26.50
19180;DHT22;9722;48.754;8.868;2023-07-08T13:53:49;39.50;27.20
19180;DHT22;9722;48.754;8.868;2023-07-08T13:57:16;38.90;27.80
19180;DHT22;9722;48.754;8.868;2023-07-08T14:00:37;38.50;28.00
19180;DHT22;9722;48.754;8.868;2023-07-08T14:03:58;38.00;28.50
19180;DHT22;9722;48.754;8.868;2023-07-08T14:07:28;37.70;28.80
19180;DHT22;9722;48.754;8.868;2023-07-08T14:10:49;37.40;29.10
19180;DHT22;9722;48.754;8.868;2023-07-08T14:14:10;37.10;28.90
19180;DHT22;9722;48.754;8.868;2023-07-08T14:17:31;36.80;29.50
19180;DHT22;9722;48.754;8.868;2023-07-08T14:20:52;36.70;30.00
19180;DHT22;9722;48.754;8.868;2023-07-08T14:24:14;36.60;30.10
19180;DHT22;9722;48.754;8.868;2023-07-08T14:27:35;36.60;30.40
19180;DHT22;9722;48.754;8.868;2023-07-08T14:30:55;36.50;30.40
19180;DHT22;9722;48.754;8.868;2023-07-08T14:34:25;36.50;30.20
19180;DHT22;9722;48.754;8.868;2023-07-08T14:37:46;36.50;30.20
19180;DHT22;9722;48.754;8.868;2023-07-08T14:41:06;36.50;30.30
19180;DHT22;9722;48.754;8.868;2023-07-08T14:44:33;36.50;30.00
19180;DHT22;9722;48.754;8.868;2023-07-08T14:47:54;36.50;30.00
19180;DHT22;9722;48.754;8.868;2023-07-08T14:51:15;36.50;30.00
19180;DHT22;9722;48.754;8.868;2023-07-08T14:54:35;36.30;30.70
19180;DHT22;9722;48.754;8.868;2023-07-08T14:57:56;36.20;31.00
19180;DHT22;9722;48.754;8.868;2023-07-08T15:01:20;36.30;31.40
19180;DHT22;9722;48.754;8.868;2023-07-08T15:04:41;36.20;30.80
19180;DHT22;9722;48.754;8.868;2023-07-08T15:08:01;36.40;30.50
19180;DHT22;9722;48.754;8.868;2023-07-08T15:11:24;36.40;30.50
19180;DHT22;9722;48.754;8.868;2023-07-08T15:14:46;36.40;30.60
19180;DHT22;9722;48.754;8.868;2023-07-08T15:18:17;36.20;30.80
19180;DHT22;9722;48.754;8.868;2023-07-08T15:21:40;36.10;30.90
19180;DHT22;9722;48.754;8.868;2023-07-08T15:25:00;36.00;31.10
19180;DHT22;9722;48.754;8.868;2023-07-08T15:28:42;36.00;31.10
19180;DHT22;9722;48.754;8.868;2023-07-08T15:32:14;35.90;31.20
19180;DHT22;9722;48.754;8.868;2023-07-08T15:35:36;35.80;31.10
19180;DHT22;9722;48.754;8.868;2023-07-08T15:38:57;35.60;31.10
19180;DHT22;9722;48.754;8.868;2023-07-08T15:42:17;35.50;31.30
19180;DHT22;9722;48.754;8.868;2023-07-08T15:45:38;35.30;31.40
19180;DHT22;9722;48.754;8.868;2023-07-08T15:49:04;35.10;31.60
19180;DHT22;9722;48.754;8.868;2023-07-08T15:52:28;34.90;31.60
19180;DHT22;9722;48.754;8.868;2023-07-08T15:55:49;34.70;32.50
19180;DHT22;9722;48.754;8.868;2023-07-08T15:59:14;34.60;31.90
19180;DHT22;9722;48.754;8.868;2023-07-08T16:02:36;34.40;32.10
19180;DHT22;9722;48.754;8.868;2023-07-08T16:05:58;34.30;32.70
19180;DHT22;9722;48.754;8.868;2023-07-08T16:09:19;34.20;32.80
19180;DHT22;9722;48.754;8.868;2023-07-08T16:12:40;34.20;32.90
19180;DHT22;9722;48.754;8.868;2023-07-08T16:16:02;34.10;33.20
19180;DHT22;9722;48.754;8.868;2023-07-08T16:19:23;34.10;33.40
19180;DHT22;9722;48.754;8.868;2023-07-08T16:22:44;34.10;33.10
19180;DHT22;9722;48.754;8.868;2023-07-08T16:26:05;34.00;33.00
19180;DHT22;9722;48.754;8.868;2023-07-08T16:29:27;34.00;32.70
19180;DHT22;9722;48.754;8.868;2023-07-08T16:32:48;34.00;32.30
19180;DHT22;9722;48.754;8.868;2023-07-08T16:36:13;33.90;32.20
19180;DHT22;9722;48.754;8.868;2023-07-08T16:39:34;33.80;32.60
19180;DHT22;9722;48.754;8.868;2023-07-08T16:42:56;33.70;32.90
19180;DHT22;9722;48.754;8.868;2023-07-08T16:46:17;33.60;33.00
19180;DHT22;9722;48.754;8.868;2023-07-08T16:49:38;33.50;32.70
19180;DHT22;9722;48.754;8.868;2023-07-08T16:52:59;33.40;32.80
19180;DHT22;9722;48.754;8.868;2023-07-08T16:56:20;33.30;32.90
19180;DHT22;9722;48.754;8.868;2023-07-08T16:59:41;33.20;33.30
19180;DHT22;9722;48.754;8.868;2023-07-08T17:03:02;33.20;33.70
19180;DHT22;9722;48.754;8.868;2023-07-08T17:06:23;33.30;33.90
19180;DHT22;9722;48.754;8.868;2023-07-08T17:09:44;33.30;33.90
19180;DHT22;9722;48.754;8.868;2023-07-08T17:13:05;33.40;34.00
19180;DHT22;9722;48.754;8.868;2023-07-08T17:16:29;33.40;33.80
19180;DHT22;9722;48.754;8.868;2023-07-08T17:19:50;33.30;33.80
19180;DHT22;9722;48.754;8.868;2023-07-08T17:23:15;33.20;33.70
19180;DHT22;9722;48.754;8.868;2023-07-08T17:26:37;33.10;33.90
19180;DHT22;9722;48.754;8.868;2023-07-08T17:29:58;33.00;34.10
19180;DHT22;9722;48.754;8.868;2023-07-08T17:33:20;32.90;34.20
19180;DHT22;9722;48.754;8.868;2023-07-08T17:36:42;32.80;34.20
19180;DHT22;9722;48.754;8.868;2023-07-08T17:40:03;32.80;34.30
19180;DHT22;9722;48.754;8.868;2023-07-08T17:43:23;32.70;34.20
19180;DHT22;9722;48.754;8.868;2023-07-08T17:46:44;32.70;34.50
19180;DHT22;9722;48.754;8.868;2023-07-08T17:50:24;32.60;34.50
19180;DHT22;9722;48.754;8.868;2023-07-08T17:53:45;32.50;34.40
19180;DHT22;9722;48.754;8.868;2023-07-08T17:57:07;32.40;34.60
19180;DHT22;9722;48.754;8.868;2023-07-08T18:00:29;32.30;35.10
19180;DHT22;9722;48.754;8.868;2023-07-08T18:03:50;32.10;35.40
19180;DHT22;9722;48.754;8.868;2023-07-08T18:07:10;32.00;35.60
19180;DHT22;9722;48.754;8.868;2023-07-08T18:10:31;31.80;35.70
19180;DHT22;9722;48.754;8.868;2023-07-08T18:13:52;31.70;36.10
19180;DHT22;9722;48.754;8.868;2023-07-08T18:17:13;31.50;36.40
19180;DHT22;9722;48.754;8.868;2023-07-08T18:20:36;31.50;37.00
19180;DHT22;9722;48.754;8.868;2023-07-08T18:23:57;31.30;37.30
19180;DHT22;9722;48.754;8.868;2023-07-08T18:27:17;31.20;37.80
19180;DHT22;9722;48.754;8.868;2023-07-08T18:30:38;31.10;38.30
19180;DHT22;9722;48.754;8.868;2023-07-08T18:34:00;30.90;38.70
19180;DHT22;9722;48.754;8.868;2023-07-08T18:37:21;30.70;39.10
19180;DHT22;9722;48.754;8.868;2023-07-08T18:40:42;30.60;39.40
19180;DHT22;9722;48.754;8.868;2023-07-08T18:44:05;30.40;39.60
19180;DHT22;9722;48.754;8.868;2023-07-08T18:47:27;30.30;40.20
19180;DHT22;9722;48.754;8.868;2023-07-08T18:50:57;30.10;40.50
19180;DHT22;9722;48.754;8.868;2023-07-08T18:54:19;29.90;40.80
19180;DHT22;9722;48.754;8.868;2023-07-08T18:57:40;29.90;41.00
19180;DHT22;9722;48.754;8.868;2023-07-08T19:01:01;29.70;40.90
19180;DHT22;9722;48.754;8.868;2023-07-08T19:04:24;29.60;41.00
19180;DHT22;9722;48.754;8.868;2023-07-08T19:07:45;29.50;41.30
19180;DHT22;9722;48.754;8.868;2023-07-08T19:11:18;29.30;41.40
19180;DHT22;9722;48.754;8.868;2023-07-08T19:14:39;29.20;42.10
19180;DHT22;9722;48.754;8.868;2023-07-08T19:18:01;28.90;42.40
19180;DHT22;9722;48.754;8.868;2023-07-08T19:21:24;28.80;42.80
19180;DHT22;9722;48.754;8.868;2023-07-08T19:24:45;28.60;43.30
19180;DHT22;9722;48.754;8.868;2023-07-08T19:28:09;28.40;43.50
19180;DHT22;9722;48.754;8.868;2023-07-08T19:31:32;28.20;43.90
19180;DHT22;9722;48.754;8.868;2023-07-08T19:34:53;28.00;44.50
19180;DHT22;9722;48.754;8.868;2023-07-08T19:38:15;27.80;44.70
19180;DHT22;9722;48.754;8.868;2023-07-08T19:41:36;27.60;45.20
19180;DHT22;9722;48.754;8.868;2023-07-08T19:44:57;27.40;45.50
19180;DHT22;9722;48.754;8.868;2023-07-08T19:48:18;27.20;46.20
19180;DHT22;9722;48.754;8.868;2023-07-08T19:51:38;27.10;46.90
19180;DHT22;9722;48.754;8.868;2023-07-08T19:54:58;26.90;47.50
19180;DHT22;9722;48.754;8.868;2023-07-08T19:58:20;26.70;48.70
19180;DHT22;9722;48.754;8.868;2023-07-08T20:01:40;26.40;48.80
19180;DHT22;9722;48.754;8.868;2023-07-08T20:05:01;26.30;49.40
19180;DHT22;9722;48.754;8.868;2023-07-08T20:08:32;26.10;50.80
19180;DHT22;9722;48.754;8.868;2023-07-08T20:11:53;25.90;50.70
19180;DHT22;9722;48.754;8.868;2023-07-08T20:15:14;25.80;51.50
19180;DHT22;9722;48.754;8.868;2023-07-08T20:18:34;25.60;52.20
19180;DHT22;9722;48.754;8.868;2023-07-08T20:21:55;25.40;53.30
19180;DHT22;9722;48.754;8.868;2023-07-08T20:25:16;25.20;53.20
19180;DHT22;9722;48.754;8.868;2023-07-08T20:28:37;25.00;53.40
19180;DHT22;9722;48.754;8.868;2023-07-08T20:31:58;24.90;54.10
19180;DHT22;9722;48.754;8.868;2023-07-08T20:35:21;24.80;54.40
19180;DHT22;9722;48.754;8.868;2023-07-08T20:38:42;24.60;54.70
19180;DHT22;9722;48.754;8.868;2023-07-08T20:42:02;24.50;55.20
19180;DHT22;9722;48.754;8.868;2023-07-08T20:45:31;24.40;55.50
19180;DHT22;9722;48.754;8.868;2023-07-08T20:48:54;24.30;56.00
19180;DHT22;9722;48.754;8.868;2023-07-08T20:52:14;24.20;56.30
19180;DHT22;9722;48.754;8.868;2023-07-08T20:55:37;24.10;56.40
19180;DHT22;9722;48.754;8.868;2023-07-08T20:58:58;24.00;56.70
19180;DHT22;9722;48.754;8.868;2023-07-08T21:02:24;23.90;56.90
19180;DHT22;9722;48.754;8.868;2023-07-08T21:05:47;23.80;57.20
19180;DHT22;9722;48.754;8.868;2023-07-08T21:09:12;23.60;57.20
19180;DHT22;9722;48.754;8.868;2023-07-08T21:12:32;23.50;57.50
19180;DHT22;9722;48.754;8.868;2023-07-08T21:15:53;23.50;57.70
19180;DHT22;9722;48.754;8.868;2023-07-08T21:19:14;23.40;58.00
19180;DHT22;9722;48.754;8.868;2023-07-08T21:22:36;23.30;58.40
19180;DHT22;9722;48.754;8.868;2023-07-08T21:25:57;23.20;58.60
19180;DHT22;9722;48.754;8.868;2023-07-08T21:29:18;23.10;58.60
19180;DHT22;9722;48.754;8.868;2023-07-08T21:32:39;23.00;58.90
19180;DHT22;9722;48.754;8.868;2023-07-08T21:35:59;23.00;59.10
19180;DHT22;9722;48.754;8.868;2023-07-08T21:39:32;22.90;59.20
19180;DHT22;9722;48.754;8.868;2023-07-08T21:42:53;22.90;59.50
19180;DHT22;9722;48.754;8.868;2023-07-08T21:46:13;22.80;59.50
19180;DHT22;9722;48.754;8.868;2023-07-08T21:49:34;22.80;59.90
19180;DHT22;9722;48.754;8.868;2023-07-08T21:52:59;22.70;60.10
19180;DHT22;9722;48.754;8.868;2023-07-08T21:56:20;22.60;60.30
19180;DHT22;9722;48.754;8.868;2023-07-08T21:59:41;22.50;60.30
19180;DHT22;9722;48.754;8.868;2023-07-08T22:03:01;22.50;60.60
19180;DHT22;9722;48.754;8.868;2023-07-08T22:06:22;22.50;60.90
19180;DHT22;9722;48.754;8.868;2023-07-08T22:09:44;22.40;61.60
19180;DHT22;9722;48.754;8.868;2023-07-08T22:13:04;22.30;62.10
19180;DHT22;9722;48.754;8.868;2023-07-08T22:16:27;22.10;62.70
19180;DHT22;9722;48.754;8.868;2023-07-08T22:19:48;22.00;62.80